sensor_id;sensor_type;location;lat;lon;timestamp;P1;durP1;ratioP1;P2;durP2;ratioP2
48002;SDS011;33768;48.578;11.574;2022-10-26T00:02:00;3.80;;;2.37;;
48002;SDS011;33768;48.578;11.574;2022-10-26T00:05:04;5.70;;;2.20;;
48002;SDS011;33768;48.578;11.574;2022-10-26T00:08:09;7.07;;;2.87;;
48002;SDS011;33768;48.578;11.574;2022-10-26T00:11:13;7.40;;;2.07;;
48002;SDS011;33768;48.578;11.574;2022-10-26T00:14:18;5.57;;;2.20;;
48002;SDS011;33768;48.578;11.574;2022-10-26T00:17:22;6.70;;;2.10;;
48002;SDS011;33768;48.578;11.574;2022-10-26T00:20:26;10.53;;;2.50;;
48002;SDS011;33768;48.578;11.574;2022-10-26T00:23:30;7.33;;;2.50;;
48002;SDS011;33768;48.578;11.574;2022-10-26T00:26:35;4.97;;;2.40;;
48002;SDS011;33768;48.578;11.574;2022-10-26T00:29:39;3.77;;;2.20;;
48002;SDS011;33768;48.578;11.574;2022-10-26T00:32:43;4.83;;;2.07;;
48002;SDS011;33768;48.578;11.574;2022-10-26T00:35:47;5.33;;;2.50;;
48002;SDS011;33768;48.578;11.574;2022-10-26T00:38:56;5.27;;;2.80;;
48002;SDS011;33768;48.578;11.574;2022-10-26T00:42:01;4.83;;;2.67;;
48002;SDS011;33768;48.578;11.574;2022-10-26T00:45:17;5.47;;;2.13;;
48002;SDS011;33768;48.578;11.574;2022-10-26T00:48:25;5.20;;;2.60;;
48002;SDS011;33768;48.578;11.574;2022-10-26T00:51:36;4.60;;;2.77;;
48002;SDS011;33768;48.578;11.574;2022-10-26T00:54:44;3.60;;;2.50;;
48002;SDS011;33768;48.578;11.574;2022-10-26T00:57:49;8.57;;;2.70;;
48002;SDS011;33768;48.578;11.574;2022-10-26T01:00:54;4.03;;;2.20;;
48002;SDS011;33768;48.578;11.574;2022-10-26T01:03:59;8.30;;;2.97;;
48002;SDS011;33768;48.578;11.574;2022-10-26T01:07:03;8.30;;;2.20;;
48002;SDS011;33768;48.578;11.574;2022-10-26T01:10:08;9.03;;;2.77;;
48002;SDS011;33768;48.578;11.574;2022-10-26T01:13:13;5.27;;;2.73;;
48002;SDS011;33768;48.578;11.574;2022-10-26T01:26:16;3.80;;;2.10;;
48002;SDS011;33768;48.578;11.574;2022-10-26T01:33:24;5.57;;;2.50;;
48002;SDS011;33768;48.578;11.574;2022-10-26T01:36:49;2.87;;;2.40;;
48002;SDS011;33768;48.578;11.574;2022-10-26T01:40:00;5.17;;;2.20;;
48002;SDS011;33768;48.578;11.574;2022-10-26T01:43:10;6.33;;;2.80;;
48002;SDS011;33768;48.578;11.574;2022-10-26T01:46:17;7.47;;;2.77;;
48002;SDS011;33768;48.578;11.574;2022-10-26T01:49:26;5.83;;;2.73;;
48002;SDS011;33768;48.578;11.574;2022-10-26T01:52:34;6.97;;;2.83;;
48002;SDS011;33768;48.578;11.574;2022-10-26T01:59:01;3.47;;;2.70;;
48002;SDS011;33768;48.578;11.574;2022-10-26T02:02:35;4.73;;;2.77;;
48002;SDS011;33768;48.578;11.574;2022-10-26T02:09:19;5.20;;;2.73;;
48002;SDS011;33768;48.578;11.574;2022-10-26T02:16:17;6.23;;;3.00;;
48002;SDS011;33768;48.578;11.574;2022-10-26T02:22:40;4.27;;;2.60;;
48002;SDS011;33768;48.578;11.574;2022-10-26T02:25:49;4.90;;;2.87;;
48002;SDS011;33768;48.578;11.574;2022-10-26T02:28:58;4.00;;;2.57;;
48002;SDS011;33768;48.578;11.574;2022-10-26T02:32:05;5.97;;;3.10;;
48002;SDS011;33768;48.578;11.574;2022-10-26T02:35:12;9.63;;;3.10;;
48002;SDS011;33768;48.578;11.574;2022-10-26T02:38:18;4.60;;;2.60;;
48002;SDS011;33768;48.578;11.574;2022-10-26T02:41:24;4.70;;;2.50;;
48002;SDS011;33768;48.578;11.574;2022-10-26T02:44:32;7.90;;;2.73;;
48002;SDS011;33768;48.578;11.574;2022-10-26T02:47:43;5.90;;;3.10;;
48002;SDS011;33768;48.578;11.574;2022-10-26T02:50:53;6.40;;;2.43;;
48002;SDS011;33768;48.578;11.574;2022-10-26T03:00:25;5.37;;;2.70;;
48002;SDS011;33768;48.578;11.574;2022-10-26T03:03:29;4.80;;;2.73;;
48002;SDS011;33768;48.578;11.574;2022-10-26T03:06:33;3.30;;;2.70;;
48002;SDS011;33768;48.578;11.574;2022-10-26T03:09:37;4.83;;;3.10;;
48002;SDS011;33768;48.578;11.574;2022-10-26T03:12:41;7.00;;;3.00;;
48002;SDS011;33768;48.578;11.574;2022-10-26T03:15:45;7.73;;;2.83;;
48002;SDS011;33768;48.578;11.574;2022-10-26T03:18:50;4.10;;;2.90;;
48002;SDS011;33768;48.578;11.574;2022-10-26T03:21:53;10.10;;;4.07;;
48002;SDS011;33768;48.578;11.574;2022-10-26T03:24:58;5.23;;;3.73;;
48002;SDS011;33768;48.578;11.574;2022-10-26T03:28:02;6.37;;;3.87;;
48002;SDS011;33768;48.578;11.574;2022-10-26T03:31:07;6.00;;;3.63;;
48002;SDS011;33768;48.578;11.574;2022-10-26T03:34:11;11.17;;;4.07;;
48002;SDS011;33768;48.578;11.574;2022-10-26T03:37:16;8.00;;;3.67;;
48002;SDS011;33768;48.578;11.574;2022-10-26T03:40:20;3.70;;;3.23;;
48002;SDS011;33768;48.578;11.574;2022-10-26T03:43:24;6.27;;;3.03;;
48002;SDS011;33768;48.578;11.574;2022-10-26T03:46:29;7.03;;;2.90;;
48002;SDS011;33768;48.578;11.574;2022-10-26T03:49:33;7.20;;;4.33;;
48002;SDS011;33768;48.578;11.574;2022-10-26T03:52:39;6.93;;;3.60;;
48002;SDS011;33768;48.578;11.574;2022-10-26T03:55:43;10.70;;;3.60;;
48002;SDS011;33768;48.578;11.574;2022-10-26T03:58:48;9.57;;;3.20;;
48002;SDS011;33768;48.578;11.574;2022-10-26T04:01:52;7.50;;;3.60;;
48002;SDS011;33768;48.578;11.574;2022-10-26T04:04:56;5.77;;;2.83;;
48002;SDS011;33768;48.578;11.574;2022-10-26T04:08:00;6.83;;;2.40;;
48002;SDS011;33768;48.578;11.574;2022-10-26T04:11:08;5.83;;;2.80;;
48002;SDS011;33768;48.578;11.574;2022-10-26T04:14:12;4.13;;;2.10;;
48002;SDS011;33768;48.578;11.574;2022-10-26T04:17:16;5.47;;;2.60;;
48002;SDS011;33768;48.578;11.574;2022-10-26T04:20:20;6.03;;;2.23;;
48002;SDS011;33768;48.578;11.574;2022-10-26T04:23:24;3.93;;;2.30;;
48002;SDS011;33768;48.578;11.574;2022-10-26T04:26:29;2.90;;;2.40;;
48002;SDS011;33768;48.578;11.574;2022-10-26T04:29:33;5.37;;;2.40;;
48002;SDS011;33768;48.578;11.574;2022-10-26T04:32:37;3.63;;;2.40;;
48002;SDS011;33768;48.578;11.574;2022-10-26T04:35:41;3.83;;;2.43;;
48002;SDS011;33768;48.578;11.574;2022-10-26T04:38:47;7.93;;;2.73;;
48002;SDS011;33768;48.578;11.574;2022-10-26T04:41:52;7.57;;;2.87;;
48002;SDS011;33768;48.578;11.574;2022-10-26T04:44:56;3.43;;;2.60;;
48002;SDS011;33768;48.578;11.574;2022-10-26T04:48:05;5.80;;;2.73;;
48002;SDS011;33768;48.578;11.574;2022-10-26T04:51:10;4.27;;;2.47;;
48002;SDS011;33768;48.578;11.574;2022-10-26T04:54:14;6.63;;;3.03;;
48002;SDS011;33768;48.578;11.574;2022-10-26T04:57:18;4.50;;;2.77;;
48002;SDS011;33768;48.578;11.574;2022-10-26T05:00:22;6.43;;;3.10;;
48002;SDS011;33768;48.578;11.574;2022-10-26T05:03:26;5.10;;;3.20;;
48002;SDS011;33768;48.578;11.574;2022-10-26T05:06:31;4.30;;;3.33;;
48002;SDS011;33768;48.578;11.574;2022-10-26T05:09:34;5.13;;;2.70;;
48002;SDS011;33768;48.578;11.574;2022-10-26T05:12:39;3.90;;;3.03;;
48002;SDS011;33768;48.578;11.574;2022-10-26T05:15:43;6.87;;;2.97;;
48002;SDS011;33768;48.578;11.574;2022-10-26T05:18:47;5.00;;;3.17;;
48002;SDS011;33768;48.578;11.574;2022-10-26T05:21:52;5.37;;;3.20;;
48002;SDS011;33768;48.578;11.574;2022-10-26T05:24:56;5.13;;;3.53;;
48002;SDS011;33768;48.578;11.574;2022-10-26T05:28:00;8.83;;;3.40;;
48002;SDS011;33768;48.578;11.574;2022-10-26T05:31:06;7.33;;;3.80;;
48002;SDS011;33768;48.578;11.574;2022-10-26T05:34:11;6.23;;;4.40;;
48002;SDS011;33768;48.578;11.574;2022-10-26T05:37:15;5.17;;;4.10;;
48002;SDS011;33768;48.578;11.574;2022-10-26T05:40:19;7.40;;;4.10;;
48002;SDS011;33768;48.578;11.574;2022-10-26T05:43:24;6.53;;;4.00;;
48002;SDS011;33768;48.578;11.574;2022-10-26T05:46:30;6.63;;;4.30;;
48002;SDS011;33768;48.578;11.574;2022-10-26T05:49:34;6.30;;;4.67;;
48002;SDS011;33768;48.578;11.574;2022-10-26T05:52:39;7.60;;;4.47;;
48002;SDS011;33768;48.578;11.574;2022-10-26T05:55:43;5.80;;;3.03;;
48002;SDS011;33768;48.578;11.574;2022-10-26T05:58:48;6.90;;;3.03;;
48002;SDS011;33768;48.578;11.574;2022-10-26T06:02:17;4.93;;;3.33;;
48002;SDS011;33768;48.578;11.574;2022-10-26T06:05:23;8.30;;;3.33;;
48002;SDS011;33768;48.578;11.574;2022-10-26T06:08:30;5.13;;;2.90;;
48002;SDS011;33768;48.578;11.574;2022-10-26T06:11:35;5.00;;;3.20;;
48002;SDS011;33768;48.578;11.574;2022-10-26T06:14:39;6.93;;;3.00;;
48002;SDS011;33768;48.578;11.574;2022-10-26T06:21:29;6.37;;;2.90;;
48002;SDS011;33768;48.578;11.574;2022-10-26T06:31:44;5.60;;;3.43;;
48002;SDS011;33768;48.578;11.574;2022-10-26T06:34:49;8.37;;;3.80;;
48002;SDS011;33768;48.578;11.574;2022-10-26T06:37:59;5.83;;;2.93;;
48002;SDS011;33768;48.578;11.574;2022-10-26T06:41:07;6.63;;;3.37;;
48002;SDS011;33768;48.578;11.574;2022-10-26T06:44:18;7.47;;;3.10;;
48002;SDS011;33768;48.578;11.574;2022-10-26T06:50:54;8.43;;;3.47;;
48002;SDS011;33768;48.578;11.574;2022-10-26T06:54:03;3.83;;;2.50;;
48002;SDS011;33768;48.578;11.574;2022-10-26T06:57:15;5.30;;;2.80;;
48002;SDS011;33768;48.578;11.574;2022-10-26T07:00:22;5.87;;;3.00;;
48002;SDS011;33768;48.578;11.574;2022-10-26T07:03:28;5.53;;;3.50;;
48002;SDS011;33768;48.578;11.574;2022-10-26T07:06:32;4.37;;;2.60;;
48002;SDS011;33768;48.578;11.574;2022-10-26T07:09:36;8.63;;;3.13;;
48002;SDS011;33768;48.578;11.574;2022-10-26T07:12:40;7.80;;;3.47;;
48002;SDS011;33768;48.578;11.574;2022-10-26T07:15:45;6.43;;;3.13;;
48002;SDS011;33768;48.578;11.574;2022-10-26T07:18:50;7.33;;;2.67;;
48002;SDS011;33768;48.578;11.574;2022-10-26T07:21:55;10.50;;;3.50;;
48002;SDS011;33768;48.578;11.574;2022-10-26T07:25:02;3.43;;;2.60;;
48002;SDS011;33768;48.578;11.574;2022-10-26T07:28:07;4.63;;;2.70;;
48002;SDS011;33768;48.578;11.574;2022-10-26T07:31:13;4.40;;;2.27;;
48002;SDS011;33768;48.578;11.574;2022-10-26T07:34:17;3.67;;;1.97;;
48002;SDS011;33768;48.578;11.574;2022-10-26T07:37:21;3.30;;;2.33;;
48002;SDS011;33768;48.578;11.574;2022-10-26T07:40:25;3.73;;;2.40;;
48002;SDS011;33768;48.578;11.574;2022-10-26T07:43:30;6.20;;;2.40;;
48002;SDS011;33768;48.578;11.574;2022-10-26T07:46:34;4.93;;;3.17;;
48002;SDS011;33768;48.578;11.574;2022-10-26T07:49:38;3.87;;;2.47;;
48002;SDS011;33768;48.578;11.574;2022-10-26T07:52:42;3.80;;;2.83;;
48002;SDS011;33768;48.578;11.574;2022-10-26T07:55:53;3.37;;;2.63;;
48002;SDS011;33768;48.578;11.574;2022-10-26T07:59:01;4.63;;;2.30;;
48002;SDS011;33768;48.578;11.574;2022-10-26T08:02:05;5.40;;;2.07;;
48002;SDS011;33768;48.578;11.574;2022-10-26T08:05:09;6.53;;;1.90;;
48002;SDS011;33768;48.578;11.574;2022-10-26T08:08:13;1.90;;;1.47;;
48002;SDS011;33768;48.578;11.574;2022-10-26T08:11:18;4.03;;;2.20;;
48002;SDS011;33768;48.578;11.574;2022-10-26T08:14:22;2.40;;;1.73;;
48002;SDS011;33768;48.578;11.574;2022-10-26T08:17:27;4.70;;;1.90;;
48002;SDS011;33768;48.578;11.574;2022-10-26T08:20:31;4.47;;;2.10;;
48002;SDS011;33768;48.578;11.574;2022-10-26T08:23:36;4.70;;;1.80;;
48002;SDS011;33768;48.578;11.574;2022-10-26T08:26:41;4.27;;;1.70;;
48002;SDS011;33768;48.578;11.574;2022-10-26T08:29:45;2.43;;;1.63;;
48002;SDS011;33768;48.578;11.574;2022-10-26T08:32:56;3.53;;;1.60;;
48002;SDS011;33768;48.578;11.574;2022-10-26T08:36:03;6.20;;;2.37;;
48002;SDS011;33768;48.578;11.574;2022-10-26T08:39:08;3.53;;;1.70;;
48002;SDS011;33768;48.578;11.574;2022-10-26T08:42:13;4.20;;;1.57;;
48002;SDS011;33768;48.578;11.574;2022-10-26T08:45:23;2.97;;;1.73;;
48002;SDS011;33768;48.578;11.574;2022-10-26T08:48:31;5.80;;;1.83;;
48002;SDS011;33768;48.578;11.574;2022-10-26T08:51:40;4.60;;;1.97;;
48002;SDS011;33768;48.578;11.574;2022-10-26T08:54:50;2.20;;;1.93;;
48002;SDS011;33768;48.578;11.574;2022-10-26T08:57:56;2.87;;;1.90;;
48002;SDS011;33768;48.578;11.574;2022-10-26T09:01:04;3.77;;;1.70;;
48002;SDS011;33768;48.578;11.574;2022-10-26T09:04:08;4.40;;;1.67;;
48002;SDS011;33768;48.578;11.574;2022-10-26T09:17:07;4.57;;;1.80;;
48002;SDS011;33768;48.578;11.574;2022-10-26T09:27:21;4.23;;;1.57;;
48002;SDS011;33768;48.578;11.574;2022-10-26T09:30:30;3.73;;;1.33;;
48002;SDS011;33768;48.578;11.574;2022-10-26T09:33:35;6.40;;;1.27;;
48002;SDS011;33768;48.578;11.574;2022-10-26T09:36:43;5.17;;;1.70;;
48002;SDS011;33768;48.578;11.574;2022-10-26T09:43:15;3.53;;;1.40;;
48002;SDS011;33768;48.578;11.574;2022-10-26T09:49:54;4.27;;;1.83;;
48002;SDS011;33768;48.578;11.574;2022-10-26T09:53:02;1.87;;;1.30;;
48002;SDS011;33768;48.578;11.574;2022-10-26T09:56:07;1.77;;;1.60;;
48002;SDS011;33768;48.578;11.574;2022-10-26T09:59:13;1.80;;;1.20;;
48002;SDS011;33768;48.578;11.574;2022-10-26T10:02:31;4.03;;;1.80;;
48002;SDS011;33768;48.578;11.574;2022-10-26T10:05:46;4.00;;;1.43;;
48002;SDS011;33768;48.578;11.574;2022-10-26T10:09:03;8.27;;;2.00;;
48002;SDS011;33768;48.578;11.574;2022-10-26T10:12:18;2.47;;;1.50;;
48002;SDS011;33768;48.578;11.574;2022-10-26T10:15:24;1.97;;;1.37;;
48002;SDS011;33768;48.578;11.574;2022-10-26T10:18:28;2.67;;;1.47;;
48002;SDS011;33768;48.578;11.574;2022-10-26T10:21:52;4.77;;;1.60;;
48002;SDS011;33768;48.578;11.574;2022-10-26T10:25:20;4.43;;;1.83;;
48002;SDS011;33768;48.578;11.574;2022-10-26T10:28:26;2.70;;;1.67;;
48002;SDS011;33768;48.578;11.574;2022-10-26T10:31:32;2.63;;;1.43;;
48002;SDS011;33768;48.578;11.574;2022-10-26T10:34:36;3.27;;;1.40;;
48002;SDS011;33768;48.578;11.574;2022-10-26T10:37:41;3.60;;;1.43;;
48002;SDS011;33768;48.578;11.574;2022-10-26T10:40:49;4.87;;;1.60;;
48002;SDS011;33768;48.578;11.574;2022-10-26T10:47:29;3.27;;;1.40;;
48002;SDS011;33768;48.578;11.574;2022-10-26T10:50:35;4.10;;;1.43;;
48002;SDS011;33768;48.578;11.574;2022-10-26T10:56:52;1.83;;;1.10;;
48002;SDS011;33768;48.578;11.574;2022-10-26T11:06:27;3.80;;;1.47;;
48002;SDS011;33768;48.578;11.574;2022-10-26T11:09:34;3.00;;;1.30;;
48002;SDS011;33768;48.578;11.574;2022-10-26T11:12:45;2.27;;;1.37;;
48002;SDS011;33768;48.578;11.574;2022-10-26T11:15:55;3.17;;;1.30;;
48002;SDS011;33768;48.578;11.574;2022-10-26T11:22:25;7.67;;;1.80;;
48002;SDS011;33768;48.578;11.574;2022-10-26T11:25:34;5.03;;;1.60;;
48002;SDS011;33768;48.578;11.574;2022-10-26T11:38:48;4.27;;;1.40;;
48002;SDS011;33768;48.578;11.574;2022-10-26T11:42:02;5.93;;;1.40;;
48002;SDS011;33768;48.578;11.574;2022-10-26T11:45:27;7.27;;;1.73;;
48002;SDS011;33768;48.578;11.574;2022-10-26T11:48:55;5.50;;;1.57;;
48002;SDS011;33768;48.578;11.574;2022-10-26T11:55:27;8.33;;;1.73;;
48002;SDS011;33768;48.578;11.574;2022-10-26T11:58:31;3.77;;;1.53;;
48002;SDS011;33768;48.578;11.574;2022-10-26T12:01:36;4.53;;;1.40;;
48002;SDS011;33768;48.578;11.574;2022-10-26T12:04:40;6.40;;;1.67;;
48002;SDS011;33768;48.578;11.574;2022-10-26T12:07:48;7.10;;;1.57;;
48002;SDS011;33768;48.578;11.574;2022-10-26T12:10:57;4.30;;;1.57;;
48002;SDS011;33768;48.578;11.574;2022-10-26T12:14:19;4.10;;;2.03;;
48002;SDS011;33768;48.578;11.574;2022-10-26T12:30:42;5.03;;;2.07;;
48002;SDS011;33768;48.578;11.574;2022-10-26T12:33:50;5.50;;;1.83;;
48002;SDS011;33768;48.578;11.574;2022-10-26T12:40:36;5.77;;;1.70;;
48002;SDS011;33768;48.578;11.574;2022-10-26T12:43:38;5.73;;;1.90;;
48002;SDS011;33768;48.578;11.574;2022-10-26T12:46:43;7.23;;;1.90;;
48002;SDS011;33768;48.578;11.574;2022-10-26T12:53:11;5.23;;;1.83;;
48002;SDS011;33768;48.578;11.574;2022-10-26T12:56:18;6.07;;;2.00;;
48002;SDS011;33768;48.578;11.574;2022-10-26T13:06:30;4.63;;;1.67;;
48002;SDS011;33768;48.578;11.574;2022-10-26T13:09:54;8.27;;;1.97;;
48002;SDS011;33768;48.578;11.574;2022-10-26T13:13:03;5.03;;;1.80;;
48002;SDS011;33768;48.578;11.574;2022-10-26T13:16:09;4.83;;;1.60;;
48002;SDS011;33768;48.578;11.574;2022-10-26T13:19:25;5.63;;;1.50;;
48002;SDS011;33768;48.578;11.574;2022-10-26T13:22:33;8.10;;;1.60;;
48002;SDS011;33768;48.578;11.574;2022-10-26T13:29:07;3.43;;;1.70;;
48002;SDS011;33768;48.578;11.574;2022-10-26T13:32:13;4.20;;;1.93;;
48002;SDS011;33768;48.578;11.574;2022-10-26T13:35:19;6.80;;;1.80;;
48002;SDS011;33768;48.578;11.574;2022-10-26T13:38:28;6.03;;;1.63;;
48002;SDS011;33768;48.578;11.574;2022-10-26T13:41:37;4.00;;;1.83;;
48002;SDS011;33768;48.578;11.574;2022-10-26T13:44:46;3.77;;;1.90;;
48002;SDS011;33768;48.578;11.574;2022-10-26T13:47:56;8.20;;;2.03;;
48002;SDS011;33768;48.578;11.574;2022-10-26T13:51:25;5.33;;;1.80;;
48002;SDS011;33768;48.578;11.574;2022-10-26T13:54:50;6.43;;;1.80;;
48002;SDS011;33768;48.578;11.574;2022-10-26T14:01:14;9.13;;;1.70;;
48002;SDS011;33768;48.578;11.574;2022-10-26T14:04:26;4.63;;;1.60;;
48002;SDS011;33768;48.578;11.574;2022-10-26T14:07:33;9.30;;;1.80;;
48002;SDS011;33768;48.578;11.574;2022-10-26T14:10:45;7.33;;;1.80;;
48002;SDS011;33768;48.578;11.574;2022-10-26T14:13:51;6.13;;;1.83;;
48002;SDS011;33768;48.578;11.574;2022-10-26T14:16:55;6.90;;;1.70;;
48002;SDS011;33768;48.578;11.574;2022-10-26T14:20:00;4.00;;;1.60;;
48002;SDS011;33768;48.578;11.574;2022-10-26T14:23:23;8.57;;;2.00;;
48002;SDS011;33768;48.578;11.574;2022-10-26T14:26:38;4.90;;;1.93;;
48002;SDS011;33768;48.578;11.574;2022-10-26T14:29:44;8.20;;;2.10;;
48002;SDS011;33768;48.578;11.574;2022-10-26T14:32:48;8.53;;;1.90;;
48002;SDS011;33768;48.578;11.574;2022-10-26T14:35:52;7.57;;;2.00;;
48002;SDS011;33768;48.578;11.574;2022-10-26T14:38:58;5.53;;;1.83;;
48002;SDS011;33768;48.578;11.574;2022-10-26T14:42:18;7.83;;;2.13;;
48002;SDS011;33768;48.578;11.574;2022-10-26T14:48:33;7.13;;;2.17;;
48002;SDS011;33768;48.578;11.574;2022-10-26T14:51:38;8.03;;;1.97;;
48002;SDS011;33768;48.578;11.574;2022-10-26T14:54:42;5.43;;;1.90;;
48002;SDS011;33768;48.578;11.574;2022-10-26T14:58:07;8.50;;;1.90;;
48002;SDS011;33768;48.578;11.574;2022-10-26T15:04:33;6.30;;;1.87;;
48002;SDS011;33768;48.578;11.574;2022-10-26T15:07:40;3.47;;;1.60;;
48002;SDS011;33768;48.578;11.574;2022-10-26T15:10:46;4.60;;;1.57;;
48002;SDS011;33768;48.578;11.574;2022-10-26T15:13:51;5.77;;;2.03;;
48002;SDS011;33768;48.578;11.574;2022-10-26T15:16:57;6.73;;;1.80;;
48002;SDS011;33768;48.578;11.574;2022-10-26T15:20:03;5.63;;;1.63;;
48002;SDS011;33768;48.578;11.574;2022-10-26T15:23:11;10.50;;;1.90;;
48002;SDS011;33768;48.578;11.574;2022-10-26T15:26:16;4.73;;;1.77;;
48002;SDS011;33768;48.578;11.574;2022-10-26T15:32:48;5.80;;;1.97;;
48002;SDS011;33768;48.578;11.574;2022-10-26T15:39:42;7.43;;;1.97;;
48002;SDS011;33768;48.578;11.574;2022-10-26T15:42:53;5.37;;;2.07;;
48002;SDS011;33768;48.578;11.574;2022-10-26T15:46:00;3.73;;;1.73;;
48002;SDS011;33768;48.578;11.574;2022-10-26T15:49:05;9.23;;;2.30;;
48002;SDS011;33768;48.578;11.574;2022-10-26T15:52:10;4.37;;;2.00;;
48002;SDS011;33768;48.578;11.574;2022-10-26T15:55:15;8.63;;;2.10;;
48002;SDS011;33768;48.578;11.574;2022-10-26T15:58:20;8.43;;;2.30;;
48002;SDS011;33768;48.578;11.574;2022-10-26T16:01:26;7.00;;;1.90;;
48002;SDS011;33768;48.578;11.574;2022-10-26T16:04:31;6.20;;;1.87;;
48002;SDS011;33768;48.578;11.574;2022-10-26T16:07:36;5.37;;;1.90;;
48002;SDS011;33768;48.578;11.574;2022-10-26T16:10:42;8.90;;;1.97;;
48002;SDS011;33768;48.578;11.574;2022-10-26T16:13:47;5.93;;;1.87;;
48002;SDS011;33768;48.578;11.574;2022-10-26T16:16:51;5.63;;;1.83;;
48002;SDS011;33768;48.578;11.574;2022-10-26T16:19:55;6.43;;;1.77;;
48002;SDS011;33768;48.578;11.574;2022-10-26T16:23:00;3.67;;;2.00;;
48002;SDS011;33768;48.578;11.574;2022-10-26T16:26:09;4.73;;;1.93;;
48002;SDS011;33768;48.578;11.574;2022-10-26T16:29:13;5.70;;;2.03;;
48002;SDS011;33768;48.578;11.574;2022-10-26T16:32:17;3.63;;;1.97;;
48002;SDS011;33768;48.578;11.574;2022-10-26T16:35:21;7.97;;;2.33;;
48002;SDS011;33768;48.578;11.574;2022-10-26T16:38:26;5.90;;;2.03;;
48002;SDS011;33768;48.578;11.574;2022-10-26T16:41:30;4.37;;;1.90;;
48002;SDS011;33768;48.578;11.574;2022-10-26T16:44:35;9.23;;;2.23;;
48002;SDS011;33768;48.578;11.574;2022-10-26T16:47:40;4.73;;;1.90;;
48002;SDS011;33768;48.578;11.574;2022-10-26T16:50:44;7.23;;;2.63;;
48002;SDS011;33768;48.578;11.574;2022-10-26T16:53:50;8.83;;;2.80;;
48002;SDS011;33768;48.578;11.574;2022-10-26T16:56:56;9.77;;;1.90;;
48002;SDS011;33768;48.578;11.574;2022-10-26T17:00:01;9.60;;;2.13;;
48002;SDS011;33768;48.578;11.574;2022-10-26T17:03:06;5.53;;;1.80;;
48002;SDS011;33768;48.578;11.574;2022-10-26T17:06:10;9.03;;;2.30;;
48002;SDS011;33768;48.578;11.574;2022-10-26T17:09:15;4.97;;;1.97;;
48002;SDS011;33768;48.578;11.574;2022-10-26T17:12:19;7.37;;;3.03;;
48002;SDS011;33768;48.578;11.574;2022-10-26T17:15:24;5.97;;;2.00;;
48002;SDS011;33768;48.578;11.574;2022-10-26T17:18:29;10.53;;;1.90;;
48002;SDS011;33768;48.578;11.574;2022-10-26T17:21:34;6.03;;;2.00;;
48002;SDS011;33768;48.578;11.574;2022-10-26T17:24:38;13.23;;;2.53;;
48002;SDS011;33768;48.578;11.574;2022-10-26T17:27:43;12.60;;;2.60;;
48002;SDS011;33768;48.578;11.574;2022-10-26T17:30:47;7.73;;;1.90;;
48002;SDS011;33768;48.578;11.574;2022-10-26T17:33:51;6.47;;;1.83;;
48002;SDS011;33768;48.578;11.574;2022-10-26T17:36:56;9.53;;;2.00;;
48002;SDS011;33768;48.578;11.574;2022-10-26T17:40:00;5.87;;;2.60;;
48002;SDS011;33768;48.578;11.574;2022-10-26T17:43:04;6.50;;;2.63;;
48002;SDS011;33768;48.578;11.574;2022-10-26T17:46:09;9.87;;;2.67;;
48002;SDS011;33768;48.578;11.574;2022-10-26T17:49:24;5.83;;;2.07;;
48002;SDS011;33768;48.578;11.574;2022-10-26T17:52:28;4.73;;;1.90;;
48002;SDS011;33768;48.578;11.574;2022-10-26T17:55:32;8.23;;;2.13;;
48002;SDS011;33768;48.578;11.574;2022-10-26T17:58:36;6.57;;;1.93;;
48002;SDS011;33768;48.578;11.574;2022-10-26T18:01:41;6.63;;;2.17;;
48002;SDS011;33768;48.578;11.574;2022-10-26T18:04:46;4.07;;;1.97;;
48002;SDS011;33768;48.578;11.574;2022-10-26T18:07:50;7.50;;;2.07;;
48002;SDS011;33768;48.578;11.574;2022-10-26T18:10:54;6.07;;;1.63;;
48002;SDS011;33768;48.578;11.574;2022-10-26T18:13:58;7.07;;;2.10;;
48002;SDS011;33768;48.578;11.574;2022-10-26T18:17:03;5.03;;;2.30;;
48002;SDS011;33768;48.578;11.574;2022-10-26T18:20:07;8.17;;;2.10;;
48002;SDS011;33768;48.578;11.574;2022-10-26T18:23:12;5.73;;;2.50;;
48002;SDS011;33768;48.578;11.574;2022-10-26T18:26:17;8.13;;;2.40;;
48002;SDS011;33768;48.578;11.574;2022-10-26T18:29:34;6.10;;;2.60;;
48002;SDS011;33768;48.578;11.574;2022-10-26T18:32:38;12.03;;;2.23;;
48002;SDS011;33768;48.578;11.574;2022-10-26T18:35:43;12.93;;;2.47;;
48002;SDS011;33768;48.578;11.574;2022-10-26T18:38:49;6.00;;;2.57;;
48002;SDS011;33768;48.578;11.574;2022-10-26T18:41:53;8.17;;;2.30;;
48002;SDS011;33768;48.578;11.574;2022-10-26T18:44:57;6.43;;;2.50;;
48002;SDS011;33768;48.578;11.574;2022-10-26T18:48:08;5.57;;;2.10;;
48002;SDS011;33768;48.578;11.574;2022-10-26T18:51:13;9.17;;;2.40;;
48002;SDS011;33768;48.578;11.574;2022-10-26T18:54:19;6.53;;;2.00;;
48002;SDS011;33768;48.578;11.574;2022-10-26T18:57:23;5.27;;;2.00;;
48002;SDS011;33768;48.578;11.574;2022-10-26T19:00:30;9.80;;;2.57;;
48002;SDS011;33768;48.578;11.574;2022-10-26T19:03:34;6.23;;;2.33;;
48002;SDS011;33768;48.578;11.574;2022-10-26T19:06:40;8.27;;;2.23;;
48002;SDS011;33768;48.578;11.574;2022-10-26T19:09:48;6.27;;;2.50;;
48002;SDS011;33768;48.578;11.574;2022-10-26T19:12:52;5.40;;;2.00;;
48002;SDS011;33768;48.578;11.574;2022-10-26T19:16:03;5.40;;;2.53;;
48002;SDS011;33768;48.578;11.574;2022-10-26T19:19:12;5.90;;;2.90;;
48002;SDS011;33768;48.578;11.574;2022-10-26T19:22:17;5.53;;;2.43;;
48002;SDS011;33768;48.578;11.574;2022-10-26T19:25:21;10.57;;;2.40;;
48002;SDS011;33768;48.578;11.574;2022-10-26T19:28:26;10.73;;;2.30;;
48002;SDS011;33768;48.578;11.574;2022-10-26T19:31:32;11.47;;;2.50;;
48002;SDS011;33768;48.578;11.574;2022-10-26T19:34:37;7.93;;;2.37;;
48002;SDS011;33768;48.578;11.574;2022-10-26T19:37:41;5.57;;;2.17;;
48002;SDS011;33768;48.578;11.574;2022-10-26T19:40:45;9.20;;;2.60;;
48002;SDS011;33768;48.578;11.574;2022-10-26T19:43:54;10.57;;;2.57;;
48002;SDS011;33768;48.578;11.574;2022-10-26T19:47:00;15.13;;;4.17;;
48002;SDS011;33768;48.578;11.574;2022-10-26T19:50:04;6.60;;;2.70;;
48002;SDS011;33768;48.578;11.574;2022-10-26T19:53:10;8.33;;;2.57;;
48002;SDS011;33768;48.578;11.574;2022-10-26T19:56:14;8.33;;;2.60;;
48002;SDS011;33768;48.578;11.574;2022-10-26T19:59:19;9.60;;;2.27;;
48002;SDS011;33768;48.578;11.574;2022-10-26T20:02:23;6.27;;;2.80;;
48002;SDS011;33768;48.578;11.574;2022-10-26T20:05:28;5.37;;;2.57;;
48002;SDS011;33768;48.578;11.574;2022-10-26T20:08:33;5.73;;;2.63;;
48002;SDS011;33768;48.578;11.574;2022-10-26T20:11:41;4.57;;;2.23;;
48002;SDS011;33768;48.578;11.574;2022-10-26T20:14:46;9.43;;;3.00;;
48002;SDS011;33768;48.578;11.574;2022-10-26T20:17:51;11.60;;;2.77;;
48002;SDS011;33768;48.578;11.574;2022-10-26T20:20:55;4.57;;;2.73;;
48002;SDS011;33768;48.578;11.574;2022-10-26T20:23:59;8.13;;;2.97;;
48002;SDS011;33768;48.578;11.574;2022-10-26T20:27:03;8.33;;;2.67;;
48002;SDS011;33768;48.578;11.574;2022-10-26T20:30:08;9.63;;;2.80;;
48002;SDS011;33768;48.578;11.574;2022-10-26T20:33:13;6.37;;;3.10;;
48002;SDS011;33768;48.578;11.574;2022-10-26T20:36:17;9.90;;;3.10;;
48002;SDS011;33768;48.578;11.574;2022-10-26T20:39:21;11.03;;;2.67;;
48002;SDS011;33768;48.578;11.574;2022-10-26T20:42:26;16.23;;;3.30;;
48002;SDS011;33768;48.578;11.574;2022-10-26T20:45:31;11.67;;;2.90;;
48002;SDS011;33768;48.578;11.574;2022-10-26T20:48:36;7.03;;;3.03;;
48002;SDS011;33768;48.578;11.574;2022-10-26T20:51:48;8.20;;;2.80;;
48002;SDS011;33768;48.578;11.574;2022-10-26T21:02:31;5.80;;;3.20;;
48002;SDS011;33768;48.578;11.574;2022-10-26T21:05:44;9.13;;;3.57;;